Time;durP1;ratioP1;P1;durP2;ratioP2;P2;SDS_P1;SDS_P2;PMS_P1;PMS_P2;Temp;Humidity;BMP_temperature;BMP_pressure;BME280_temperature;BME280_humidity;BME280_pressure;Samples;Min_cycle;Max_cycle;Signal;HPM_P1;HPM_P2
2021/04/30 00:01:40;;;;;;;8.10;5.80;;;8.90;99.90;;;;;;5162376;27;20161;-80
2021/04/30 00:04:05;;;;;;;5.37;4.87;;;8.80;99.90;;;;;;5163008;27;20659;-79
2021/04/30 00:06:31;;;;;;;5.50;5.00;;;9.10;99.90;;;;;;5145011;27;20398;-80
2021/04/30 00:08:57;;;;;;;6.77;4.87;;;9.20;99.90;;;;;;5162478;27;20211;-80
2021/04/30 00:11:23;;;;;;;6.67;5.23;;;9.20;99.90;;;;;;5144390;27;20390;-80
2021/04/30 00:13:49;;;;;;;6.47;4.93;;;9.40;99.90;;;;;;5162703;27;20163;-80
2021/04/30 00:16:15;;;;;;;4.27;3.87;;;9.40;99.90;;;;;;5162707;27;20253;-80
2021/04/30 00:18:41;;;;;;;6.33;5.80;;;9.10;99.90;;;;;;5163344;27;20244;-80
2021/04/30 00:21:07;;;;;;;5.57;5.07;;;8.70;99.90;;;;;;5162892;27;20239;-81
2021/04/30 00:23:34;;;;;;;5.83;5.20;;;8.50;99.90;;;;;;5144981;27;20395;-80
2021/04/30 00:26:02;;;;;;;5.93;5.43;;;8.30;99.90;;;;;;5162687;27;20390;-80
2021/04/30 00:28:29;;;;;;;5.30;4.80;;;8.10;99.90;;;;;;5163408;27;20390;-80
2021/04/30 00:30:55;;;;;;;6.77;5.70;;;8.10;99.90;;;;;;5164704;27;20434;-78
2021/04/30 00:33:23;;;;;;;8.50;6.00;;;8.20;99.90;;;;;;5171743;27;20393;-80
2021/04/30 00:35:49;;;;;;;8.30;6.00;;;8.20;99.90;;;;;;5167609;27;20884;-80
2021/04/30 00:38:15;;;;;;;5.93;5.33;;;8.50;99.90;;;;;;5163047;27;20422;-80
2021/04/30 00:40:42;;;;;;;6.40;5.17;;;8.70;99.90;;;;;;5163175;27;20386;-80
2021/04/30 00:43:09;;;;;;;7.93;5.87;;;8.50;99.90;;;;;;5162766;27;20449;-80
2021/04/30 00:45:35;;;;;;;6.30;5.70;;;8.70;99.90;;;;;;5163688;27;20386;-80
2021/04/30 00:48:01;;;;;;;8.07;5.80;;;8.60;99.90;;;;;;5163369;27;20391;-80
2021/04/30 00:50:28;;;;;;;6.13;5.63;;;8.40;99.90;;;;;;5163397;27;20425;-79
2021/04/30 00:52:55;;;;;;;6.60;6.00;;;8.20;99.90;;;;;;5164871;27;20390;-80
2021/04/30 00:55:22;;;;;;;6.27;5.67;;;8.00;99.90;;;;;;5167515;27;20383;-78
2021/04/30 00:57:54;;;;;;;7.03;6.30;;;7.90;99.90;;;;;;5148796;27;20386;-77
2021/04/30 01:00:22;;;;;;;6.23;5.63;;;7.70;99.90;;;;;;5167898;27;20386;-78
2021/04/30 01:02:48;;;;;;;6.33;5.70;;;7.60;99.90;;;;;;5167945;27;20481;-78
2021/04/30 01:05:14;;;;;;;7.20;6.30;;;7.50;99.90;;;;;;5167622;27;20386;-78
2021/04/30 01:07:40;;;;;;;8.30;6.90;;;7.30;99.90;;;;;;5165472;27;20264;-77
2021/04/30 01:10:06;;;;;;;5.70;5.20;;;7.40;99.90;;;;;;5165635;27;20913;-81
2021/04/30 01:12:33;;;;;;;6.77;5.40;;;7.40;99.90;;;;;;5162387;27;20288;-80
2021/04/30 01:14:59;;;;;;;7.00;5.87;;;7.40;99.90;;;;;;5161818;27;20398;-81
2021/04/30 01:17:26;;;;;;;7.13;6.43;;;7.50;99.90;;;;;;5126201;27;20723;-78
2021/04/30 01:19:55;;;;;;;9.93;6.70;;;7.50;99.90;;;;;;5163334;27;20390;-82
2021/04/30 01:22:42;;;;;;;6.97;6.27;;;7.40;99.90;;;;;;5165174;27;20433;-78
2021/04/30 01:25:11;;;;;;;6.07;5.47;;;7.20;99.90;;;;;;5107640;28;20419;-77
2021/04/30 01:27:38;;;;;;;5.90;5.30;;;7.10;99.90;;;;;;5107077;28;20866;-78
2021/04/30 01:30:08;;;;;;;7.30;6.17;;;7.20;99.90;;;;;;5089394;28;20816;-78
2021/04/30 01:32:34;;;;;;;7.33;6.63;;;7.50;99.90;;;;;;5100165;28;20401;-81
2021/04/30 01:35:00;;;;;;;9.90;5.80;;;7.40;99.90;;;;;;5098774;28;20420;-81
2021/04/30 01:37:26;;;;;;;6.83;6.13;;;7.80;99.90;;;;;;5099556;28;20158;-81
2021/04/30 01:39:52;;;;;;;8.23;6.60;;;7.70;99.90;;;;;;5098925;28;20194;-81
2021/04/30 01:42:18;;;;;;;5.83;5.30;;;7.90;99.90;;;;;;5098650;28;20229;-80
2021/04/30 01:44:44;;;;;;;9.90;7.10;;;7.90;99.90;;;;;;5098948;28;20409;-80
2021/04/30 01:47:10;;;;;;;6.80;6.00;;;8.10;99.90;;;;;;5098395;28;20412;-78
2021/04/30 01:49:36;;;;;;;7.13;6.43;;;8.00;99.90;;;;;;5097936;28;20197;-80
2021/04/30 01:52:02;;;;;;;8.27;6.10;;;8.20;99.90;;;;;;5098491;28;20393;-79
2021/04/30 01:54:27;;;;;;;7.17;6.27;;;8.10;99.90;;;;;;5098411;28;20247;-81
2021/04/30 01:56:53;;;;;;;8.00;6.50;;;8.00;99.90;;;;;;5151075;27;20406;-81
2021/04/30 01:59:19;;;;;;;9.03;7.13;;;7.90;99.90;;;;;;5162712;27;20253;-80
2021/04/30 02:01:45;;;;;;;9.63;6.50;;;7.80;99.90;;;;;;5163022;27;20510;-81
2021/04/30 02:04:11;;;;;;;7.77;6.80;;;7.60;99.90;;;;;;5162490;27;20160;-80
2021/04/30 02:06:39;;;;;;;8.47;7.40;;;7.50;99.90;;;;;;5162968;27;20216;-80
2021/04/30 02:09:07;;;;;;;7.40;6.13;;;7.40;99.90;;;;;;5162743;27;20447;-81
2021/04/30 02:11:34;;;;;;;7.70;5.73;;;7.40;99.90;;;;;;5162804;27;20489;-80
2021/04/30 02:14:01;;;;;;;7.27;6.53;;;7.30;99.90;;;;;;5162968;27;20411;-80
2021/04/30 02:16:27;;;;;;;8.90;5.87;;;7.10;99.90;;;;;;5162734;27;20386;-81
2021/04/30 02:18:52;;;;;;;10.10;6.60;;;6.30;99.90;;;;;;5163234;27;20382;-80
2021/04/30 02:21:18;;;;;;;7.83;4.63;;;6.00;99.90;;;;;;5163860;27;20164;-80
2021/04/30 02:23:45;;;;;;;6.50;4.77;;;5.80;99.90;;;;;;5164078;27;20164;-80
2021/04/30 02:26:11;;;;;;;7.87;6.50;;;5.80;99.90;;;;;;5164388;27;20408;-81
2021/04/30 02:28:37;;;;;;;5.87;5.30;;;5.60;99.90;;;;;;5166517;27;20385;-81
2021/04/30 02:31:02;;;;;;;5.83;5.00;;;5.60;99.90;;;;;;5166920;27;20192;-80
2021/04/30 02:33:29;;;;;;;10.20;5.27;;;5.80;99.90;;;;;;5147933;27;20839;-79
2021/04/30 02:35:55;;;;;;;7.37;6.60;;;5.40;99.90;;;;;;5166340;27;20161;-81
2021/04/30 02:38:20;;;;;;;5.33;4.83;;;5.40;99.90;;;;;;5165116;27;20386;-81
2021/04/30 02:40:49;;;;;;;6.07;5.50;;;5.30;99.90;;;;;;5165009;27;20164;-81
2021/04/30 02:43:17;;;;;;;10.23;6.27;;;5.50;99.90;;;;;;5164172;27;20228;-80
2021/04/30 02:45:44;;;;;;;5.97;5.17;;;5.90;99.90;;;;;;5146392;27;20876;-80
2021/04/30 02:48:21;;;;;;;7.50;5.90;;;6.00;99.90;;;;;;5146384;27;20425;-80
2021/04/30 02:50:47;;;;;;;7.80;5.67;;;6.20;99.90;;;;;;5164785;27;20459;-80
2021/04/30 02:53:12;;;;;;;8.53;6.53;;;5.90;99.90;;;;;;5146869;27;20397;-79
2021/04/30 02:55:39;;;;;;;8.50;7.70;;;6.10;99.90;;;;;;5165267;27;20189;-80
2021/04/30 02:58:05;;;;;;;6.47;5.83;;;5.80;99.90;;;;;;5146891;27;20163;-80
2021/04/30 03:00:31;;;;;;;6.53;5.93;;;5.70;99.90;;;;;;5164920;27;20395;-80
2021/04/30 03:02:58;;;;;;;10.73;6.50;;;5.50;99.90;;;;;;5165254;27;20390;-81
2021/04/30 03:05:24;;;;;;;6.33;5.77;;;5.60;99.90;;;;;;5165486;27;20405;-81
2021/04/30 03:07:50;;;;;;;7.30;5.93;;;5.50;99.90;;;;;;5164499;27;20878;-81
2021/04/30 03:10:17;;;;;;;6.67;5.67;;;5.50;99.90;;;;;;5146500;27;20238;-81
2021/04/30 03:12:43;;;;;;;7.80;7.00;;;5.70;99.90;;;;;;5145674;27;20391;-80
2021/04/30 03:15:12;;;;;;;5.60;4.83;;;5.30;99.90;;;;;;5164706;27;20409;-80
2021/04/30 03:17:38;;;;;;;7.10;6.00;;;5.10;99.90;;;;;;5164699;27;20442;-81
2021/04/30 03:20:05;;;;;;;8.30;6.30;;;5.00;99.90;;;;;;5164741;27;20469;-81
2021/04/30 03:22:30;;;;;;;7.50;6.83;;;5.10;99.90;;;;;;5164888;27;20165;-81
2021/04/30 03:24:56;;;;;;;7.63;6.20;;;5.10;99.90;;;;;;5164496;27;20394;-81
2021/04/30 03:27:25;;;;;;;6.80;6.13;;;5.00;99.90;;;;;;5164914;27;20161;-80
2021/04/30 03:29:51;;;;;;;8.20;7.07;;;5.10;99.90;;;;;;5165238;27;20192;-81
2021/04/30 03:32:17;;;;;;;9.07;7.10;;;5.10;99.90;;;;;;5164131;27;20393;-81
2021/04/30 03:34:43;;;;;;;10.77;7.00;;;4.90;99.90;;;;;;5164625;27;20535;-81
2021/04/30 03:37:09;;;;;;;6.33;5.73;;;5.10;99.90;;;;;;5163480;27;20153;-81
2021/04/30 03:39:35;;;;;;;7.97;7.17;;;5.10;99.90;;;;;;5165531;27;20751;-78
2021/04/30 03:42:00;;;;;;;8.93;8.07;;;5.20;99.90;;;;;;5136426;27;20227;-77
2021/04/30 03:44:26;;;;;;;9.33;6.77;;;5.20;99.90;;;;;;5173071;27;20516;-77
2021/04/30 03:46:52;;;;;;;9.67;7.50;;;4.90;99.90;;;;;;5175125;27;20156;-77
2021/04/30 03:49:18;;;;;;;9.90;7.40;;;4.80;99.90;;;;;;5171245;27;20188;-80
2021/04/30 03:51:43;;;;;;;7.97;7.17;;;5.00;99.90;;;;;;5165343;27;20149;-81
2021/04/30 03:54:09;;;;;;;9.80;8.13;;;5.10;99.90;;;;;;5164843;27;20152;-81
2021/04/30 03:56:35;;;;;;;11.70;7.40;;;5.20;99.90;;;;;;5164623;27;20157;-80
2021/04/30 03:59:01;;;;;;;9.00;6.83;;;5.20;99.90;;;;;;5163310;27;20160;-81
2021/04/30 04:01:27;;;;;;;8.33;6.37;;;5.20;99.90;;;;;;5080420;28;20241;-81
2021/04/30 04:03:53;;;;;;;10.00;6.77;;;5.10;99.90;;;;;;5087105;28;20665;-80
2021/04/30 04:06:20;;;;;;;15.07;8.60;;;5.20;99.90;;;;;;5092613;28;20201;-80
2021/04/30 04:08:46;;;;;;;8.00;6.63;;;5.30;99.90;;;;;;5100637;28;20971;-81
2021/04/30 04:11:11;;;;;;;8.73;6.80;;;5.20;99.90;;;;;;5100770;28;20457;-81
2021/04/30 04:13:37;;;;;;;11.93;8.03;;;5.30;99.90;;;;;;5100151;28;20657;-81
2021/04/30 04:16:04;;;;;;;15.63;7.60;;;5.20;99.90;;;;;;5097265;28;20581;-80
2021/04/30 04:18:31;;;;;;;6.53;5.93;;;5.10;99.90;;;;;;5098950;28;20389;-80
2021/04/30 04:20:57;;;;;;;22.13;7.70;;;5.20;99.90;;;;;;5102758;28;20413;-79
2021/04/30 04:23:23;;;;;;;12.87;9.10;;;5.20;99.90;;;;;;5088329;28;20409;-80
2021/04/30 04:25:49;;;;;;;9.97;6.70;;;4.90;99.90;;;;;;5081071;28;20382;-81
2021/04/30 04:28:14;;;;;;;9.17;7.03;;;4.90;99.90;;;;;;5079721;28;20171;-81
2021/04/30 04:30:41;;;;;;;11.70;8.33;;;5.20;99.90;;;;;;5064923;28;20191;-81
2021/04/30 04:33:07;;;;;;;8.87;7.20;;;4.80;99.90;;;;;;5112494;27;20657;-80
2021/04/30 04:35:33;;;;;;;7.77;7.07;;;4.90;99.90;;;;;;5145173;27;20429;-80
2021/04/30 04:37:59;;;;;;;8.07;7.27;;;4.80;99.90;;;;;;5145880;27;20855;-80
2021/04/30 04:40:25;;;;;;;9.93;8.60;;;4.70;99.90;;;;;;5126804;27;20166;-81
2021/04/30 04:42:52;;;;;;;6.90;6.13;;;4.80;99.90;;;;;;5137393;27;20470;-79
2021/04/30 04:45:21;;;;;;;13.70;6.90;;;4.90;99.90;;;;;;5145610;27;20391;-80
2021/04/30 04:47:47;;;;;;;6.53;5.93;;;4.80;99.90;;;;;;5127816;28;20383;-81
2021/04/30 04:50:14;;;;;;;7.80;6.80;;;4.70;99.90;;;;;;5148314;27;20531;-81
2021/04/30 04:52:40;;;;;;;10.37;9.23;;;4.70;99.90;;;;;;5131189;27;20428;-81
2021/04/30 04:55:07;;;;;;;11.23;7.20;;;4.40;99.90;;;;;;5146533;27;20784;-81
2021/04/30 04:57:33;;;;;;;9.97;8.83;;;4.70;99.90;;;;;;5146586;27;20236;-81
2021/04/30 04:59:59;;;;;;;8.40;6.93;;;4.70;99.90;;;;;;5146136;27;20386;-81
2021/04/30 05:02:25;;;;;;;12.33;8.30;;;4.80;99.90;;;;;;5146011;27;20486;-81
2021/04/30 05:04:51;;;;;;;13.70;7.20;;;5.10;99.90;;;;;;5146645;27;20444;-80
2021/04/30 05:07:18;;;;;;;17.43;8.10;;;5.40;99.90;;;;;;5145809;27;20153;-81
2021/04/30 05:09:44;;;;;;;11.50;8.40;;;5.20;99.90;;;;;;5145939;27;20284;-81
2021/04/30 05:12:10;;;;;;;9.60;8.40;;;5.20;99.90;;;;;;5145136;27;20383;-81
2021/04/30 05:14:36;;;;;;;10.60;8.03;;;5.10;99.90;;;;;;5128020;27;20158;-81
2021/04/30 05:17:02;;;;;;;8.50;7.03;;;5.20;99.90;;;;;;5145612;27;20153;-81
2021/04/30 05:19:27;;;;;;;8.30;7.33;;;5.40;99.90;;;;;;5145675;27;20169;-81
2021/04/30 05:21:54;;;;;;;9.50;8.50;;;5.60;99.90;;;;;;5145366;27;20222;-81
2021/04/30 05:24:20;;;;;;;10.50;7.07;;;6.00;99.90;;;;;;5144709;27;20160;-81
2021/04/30 05:26:46;;;;;;;8.83;7.27;;;6.10;99.90;;;;;;5144934;27;20392;-81
2021/04/30 05:29:12;;;;;;;10.87;8.70;;;6.50;99.90;;;;;;5145320;27;20248;-81
2021/04/30 05:31:38;;;;;;;9.40;7.63;;;6.80;99.90;;;;;;5145060;27;20154;-81
2021/04/30 05:34:04;;;;;;;9.80;8.33;;;6.90;99.90;;;;;;5092607;28;20399;-81
2021/04/30 05:36:30;;;;;;;11.67;8.43;;;7.00;99.90;;;;;;5146400;27;20586;-81
2021/04/30 05:38:56;;;;;;;8.47;7.17;;;6.80;99.90;;;;;;5146442;27;20416;-80
2021/04/30 05:41:22;;;;;;;8.77;7.97;;;6.60;99.90;;;;;;5146723;27;20425;-81
2021/04/30 05:43:48;;;;;;;7.43;6.37;;;6.60;99.90;;;;;;5148210;27;20224;-78
2021/04/30 05:46:14;;;;;;;7.77;6.90;;;6.80;99.90;;;;;;5133512;28;20414;-78
2021/04/30 05:48:40;;;;;;;11.07;8.00;;;6.80;99.90;;;;;;5150468;28;20177;-78
2021/04/30 05:51:06;;;;;;;10.23;7.70;;;6.70;99.90;;;;;;5149876;28;20196;-78
2021/04/30 05:53:31;;;;;;;11.03;8.50;;;6.70;99.90;;;;;;5130097;28;20201;-77
2021/04/30 05:55:57;;;;;;;10.27;8.23;;;7.00;99.90;;;;;;5108128;28;20304;-78
2021/04/30 05:58:24;;;;;;;7.50;6.77;;;6.90;99.90;;;;;;5127490;28;20484;-78
2021/04/30 06:00:50;;;;;;;8.20;7.43;;;6.70;99.90;;;;;;5144211;27;20181;-80
2021/04/30 06:03:15;;;;;;;11.03;8.47;;;6.70;99.90;;;;;;5147705;27;20443;-80
2021/04/30 06:05:41;;;;;;;10.67;8.07;;;6.70;99.90;;;;;;5117536;27;20418;-80
2021/04/30 06:08:07;;;;;;;11.33;8.10;;;7.00;99.90;;;;;;5131948;27;20222;-79
2021/04/30 06:10:33;;;;;;;10.70;8.17;;;6.90;99.90;;;;;;5131402;27;20280;-81
2021/04/30 06:13:06;;;;;;;8.10;6.90;;;7.00;99.90;;;;;;5148042;27;20516;-80
2021/04/30 06:15:33;;;;;;;12.77;8.97;;;7.20;99.90;;;;;;5162236;27;20152;-78
2021/04/30 06:17:59;;;;;;;8.73;7.83;;;7.60;99.90;;;;;;5136015;27;20446;-80
2021/04/30 06:20:25;;;;;;;9.03;7.43;;;7.60;99.90;;;;;;5147219;27;20391;-80
2021/04/30 06:22:51;;;;;;;11.40;9.70;;;7.70;99.90;;;;;;5141995;27;20875;-81
2021/04/30 06:25:17;;;;;;;14.37;11.27;;;8.10;99.90;;;;;;5148089;27;20454;-81
2021/04/30 06:27:44;;;;;;;21.33;11.90;;;8.40;99.90;;;;;;5120307;28;20177;-81
2021/04/30 06:30:10;;;;;;;16.40;13.07;;;8.70;99.90;;;;;;5138800;27;20193;-80
2021/04/30 06:32:38;;;;;;;11.60;9.50;;;8.60;99.90;;;;;;5139432;27;20407;-81
2021/04/30 06:35:07;;;;;;;13.33;10.83;;;8.90;99.90;;;;;;5136675;27;20431;-79
2021/04/30 06:37:33;;;;;;;13.10;10.23;;;9.10;99.90;;;;;;5147205;27;20414;-81
2021/04/30 06:39:59;;;;;;;13.20;10.97;;;9.30;99.90;;;;;;5146036;27;20505;-80
2021/04/30 06:42:25;;;;;;;16.70;10.37;;;9.40;99.90;;;;;;5138466;27;20473;-81
2021/04/30 06:44:52;;;;;;;14.23;10.80;;;9.30;99.90;;;;;;5140372;27;20495;-80
2021/04/30 06:47:18;;;;;;;15.13;10.93;;;8.60;99.90;;;;;;5144648;27;20508;-81
2021/04/30 06:49:44;;;;;;;13.87;10.57;;;8.40;99.90;;;;;;5138597;27;20465;-81
2021/04/30 06:52:10;;;;;;;10.77;9.60;;;8.60;99.90;;;;;;5134741;27;20423;-81
2021/04/30 06:54:36;;;;;;;13.93;11.50;;;9.20;99.90;;;;;;5127379;27;20272;-81
2021/04/30 06:57:03;;;;;;;14.80;11.43;;;9.30;99.90;;;;;;5129612;27;20596;-81
2021/04/30 06:59:28;;;;;;;16.50;12.10;;;9.40;99.90;;;;;;5098636;28;20190;-79
2021/04/30 07:01:54;;;;;;;16.90;10.27;;;9.30;99.90;;;;;;5127299;27;20439;-81
2021/04/30 07:04:20;;;;;;;15.53;11.30;;;9.50;99.90;;;;;;5128503;27;20262;-82
2021/04/30 07:06:47;;;;;;;17.57;11.10;;;9.70;99.90;;;;;;5135093;27;20406;-81
2021/04/30 07:09:13;;;;;;;13.43;10.67;;;9.80;99.90;;;;;;5108041;28;20448;-81
2021/04/30 07:11:39;;;;;;;14.03;10.53;;;9.90;99.90;;;;;;5124939;27;20415;-82
2021/04/30 07:14:05;;;;;;;12.37;11.10;;;9.60;99.90;;;;;;5120914;27;20514;-81
2021/04/30 07:16:32;;;;;;;14.83;10.10;;;9.70;99.90;;;;;;5149333;27;20387;-81
2021/04/30 07:18:58;;;;;;;13.40;9.73;;;10.00;99.90;;;;;;5154662;27;20426;-81
2021/04/30 07:21:24;;;;;;;10.70;9.40;;;10.10;99.90;;;;;;5119472;28;20404;-81
2021/04/30 07:23:51;;;;;;;14.53;11.17;;;10.10;99.90;;;;;;5121920;28;20877;-81
2021/04/30 07:26:17;;;;;;;14.63;10.60;;;10.10;99.90;;;;;;5144154;27;20415;-82
2021/04/30 07:28:43;;;;;;;14.03;10.13;;;10.10;99.90;;;;;;5133214;27;20412;-82
2021/04/30 07:31:10;;;;;;;12.77;10.87;;;10.20;99.90;;;;;;5141185;27;20213;-81
2021/04/30 07:33:37;;;;;;;12.30;10.50;;;10.30;99.90;;;;;;5144988;27;20492;-81
2021/04/30 07:36:05;;;;;;;9.93;8.93;;;10.30;99.90;;;;;;5141185;27;20442;-80
2021/04/30 07:38:31;;;;;;;14.50;10.33;;;10.20;99.90;;;;;;5141969;27;20783;-82
2021/04/30 07:40:57;;;;;;;12.07;10.50;;;10.00;99.90;;;;;;5094728;28;20443;-80
2021/04/30 07:43:23;;;;;;;15.10;12.23;;;9.70;99.90;;;;;;5114355;27;20479;-81
2021/04/30 07:45:49;;;;;;;11.70;10.17;;;9.90;99.90;;;;;;5141315;27;20189;-81
2021/04/30 07:48:15;;;;;;;11.67;10.47;;;9.40;99.90;;;;;;5136608;27;20442;-83
2021/04/30 07:50:41;;;;;;;12.87;11.00;;;9.50;99.90;;;;;;5125846;27;20533;-81
2021/04/30 07:53:13;;;;;;;12.57;9.97;;;9.80;99.90;;;;;;5103219;27;20544;-80
2021/04/30 07:55:39;;;;;;;16.67;11.03;;;10.10;99.90;;;;;;5110184;27;20815;-82
2021/04/30 07:58:05;;;;;;;10.77;9.17;;;10.30;99.90;;;;;;5091811;28;20408;-81
2021/04/30 08:00:31;;;;;;;15.97;11.03;;;10.30;99.90;;;;;;5090303;28;20285;-81
2021/04/30 08:02:57;;;;;;;11.17;9.97;;;10.40;99.90;;;;;;5135000;27;20529;-81
2021/04/30 08:05:23;;;;;;;11.17;9.33;;;10.50;99.90;;;;;;5150494;27;20173;-81
2021/04/30 08:07:50;;;;;;;14.40;10.57;;;10.60;99.90;;;;;;5122160;27;20452;-79
2021/04/30 08:10:16;;;;;;;12.13;10.67;;;10.50;99.90;;;;;;5102178;27;20534;-79
2021/04/30 08:12:42;;;;;;;13.80;10.60;;;10.60;99.90;;;;;;5154294;27;20425;-78
2021/04/30 08:15:11;;;;;;;13.30;11.00;;;10.60;99.90;;;;;;5143261;27;20169;-81
2021/04/30 08:17:37;;;;;;;12.20;9.73;;;10.70;99.90;;;;;;5145622;27;20414;-81
2021/04/30 08:20:08;;;;;;;12.13;9.93;;;10.80;99.90;;;;;;5092043;27;20514;-82
2021/04/30 08:22:35;;;;;;;14.10;10.80;;;10.80;99.90;;;;;;5122984;27;20840;-81
2021/04/30 08:25:02;;;;;;;13.40;10.43;;;10.60;99.90;;;;;;5130490;27;20426;-82
2021/04/30 08:27:27;;;;;;;13.33;9.70;;;10.20;99.90;;;;;;5124099;27;20415;-81
2021/04/30 08:29:53;;;;;;;13.90;8.50;;;10.40;99.90;;;;;;5141745;27;20450;-81
2021/04/30 08:32:19;;;;;;;12.43;10.30;;;10.50;99.90;;;;;;5117997;27;20161;-80
2021/04/30 08:34:45;;;;;;;14.10;10.30;;;10.20;99.90;;;;;;5134679;27;20195;-81
2021/04/30 08:37:15;;;;;;;14.73;11.20;;;10.10;99.90;;;;;;5123219;27;20626;-80
2021/04/30 08:39:42;;;;;;;12.27;9.37;;;10.40;99.90;;;;;;5086067;28;20858;-81
2021/04/30 08:42:09;;;;;;;13.67;9.80;;;10.80;99.90;;;;;;5123722;27;20465;-80
2021/04/30 08:44:37;;;;;;;11.13;10.03;;;10.90;99.90;;;;;;5138461;27;20419;-82
2021/04/30 08:47:03;;;;;;;14.03;10.97;;;11.00;99.90;;;;;;5121789;27;20422;-82
2021/04/30 08:49:30;;;;;;;16.40;9.73;;;10.70;99.90;;;;;;5147049;27;20474;-82
2021/04/30 08:51:56;;;;;;;12.33;10.07;;;11.10;99.90;;;;;;5122100;27;20170;-82
2021/04/30 08:54:22;;;;;;;12.47;10.70;;;10.90;99.90;;;;;;5118450;27;20417;-82
2021/04/30 08:56:52;;;;;;;12.70;10.70;;;11.20;99.90;;;;;;5144319;27;20192;-82
2021/04/30 08:59:22;;;;;;;11.30;10.00;;;10.90;99.90;;;;;;5155724;27;20191;-82
2021/04/30 09:01:48;;;;;;;10.60;9.50;;;10.80;99.90;;;;;;5146259;27;20411;-82
2021/04/30 09:04:14;;;;;;;15.03;10.97;;;10.90;99.90;;;;;;5119796;27;20510;-81
2021/04/30 09:06:41;;;;;;;25.50;10.57;;;10.50;99.90;;;;;;5138262;27;20262;-81
2021/04/30 09:09:34;;;;;;;10.57;9.47;;;10.80;99.90;;;;;;5137715;27;20442;-82
2021/04/30 09:12:00;;;;;;;12.20;10.00;;;10.90;99.90;;;;;;5109071;27;20520;-83
2021/04/30 09:14:31;;;;;;;10.53;9.43;;;11.40;99.90;;;;;;5110247;28;20441;-82
2021/04/30 09:17:05;;;;;;;15.53;10.83;;;11.90;99.90;;;;;;5133087;27;20879;-83
2021/04/30 09:19:44;;;;;;;10.50;9.40;;;12.40;99.90;;;;;;5086227;28;20430;-82
2021/04/30 09:22:10;;;;;;;11.53;9.90;;;13.00;99.90;;;;;;5115549;28;20419;-81
2021/04/30 09:24:37;;;;;;;12.10;10.10;;;13.00;99.90;;;;;;5104303;28;20479;-80
2021/04/30 09:27:04;;;;;;;11.47;10.07;;;13.40;99.90;;;;;;5094488;28;20189;-79
2021/04/30 09:29:32;;;;;;;11.30;10.20;;;13.70;99.90;;;;;;5119163;28;20865;-79
2021/04/30 09:32:00;;;;;;;21.60;10.67;;;14.10;99.90;;;;;;5097824;28;20413;-81
2021/04/30 09:34:29;;;;;;;12.63;9.90;;;14.10;99.90;;;;;;5109351;28;20420;-81
2021/04/30 09:37:13;;;;;;;10.90;9.80;;;14.00;99.90;;;;;;5094255;28;20411;-82
2021/04/30 09:39:56;;;;;;;14.80;10.57;;;13.40;99.90;;;;;;5094483;28;20431;-82
2021/04/30 09:42:27;;;;;;;13.20;9.70;;;13.80;99.90;;;;;;5116077;28;20497;-83
2021/04/30 09:44:57;;;;;;;13.47;11.30;;;13.80;99.90;;;;;;5102370;28;20870;-82
2021/04/30 09:47:26;;;;;;;10.97;9.47;;;13.70;99.90;;;;;;5092719;28;20538;-82
2021/04/30 09:49:56;;;;;;;10.00;8.57;;;13.80;99.90;;;;;;5093680;28;20455;-82
2021/04/30 09:52:25;;;;;;;10.80;9.73;;;13.80;99.90;;;;;;5132804;28;20469;-82
2021/04/30 09:54:53;;;;;;;10.60;9.60;;;14.00;99.90;;;;;;5130870;28;20494;-82
2021/04/30 09:57:24;;;;;;;11.20;9.47;;;14.40;99.90;;;;;;5100420;28;20415;-80
2021/04/30 09:59:56;;;;;;;9.57;8.57;;;14.50;99.90;;;;;;5141285;28;20406;-80
2021/04/30 10:02:26;;;;;;;10.87;8.97;;;14.00;99.90;;;;;;5117547;28;20422;-83
2021/04/30 10:04:54;;;;;;;8.17;7.47;;;13.80;99.90;;;;;;5143667;28;20403;-82
2021/04/30 10:07:37;;;;;;;10.20;8.03;;;14.20;99.90;;;;;;5139199;28;20443;-82
2021/04/30 10:10:12;;;;;;;12.60;7.50;;;13.30;99.90;;;;;;5143859;28;20510;-81
2021/04/30 10:12:43;;;;;;;9.63;8.67;;;13.30;99.90;;;;;;5134768;28;20418;-80
2021/04/30 10:15:13;;;;;;;10.03;7.40;;;13.90;99.90;;;;;;5156236;27;20409;-81
2021/04/30 10:17:39;;;;;;;12.23;8.57;;;14.00;99.90;;;;;;5093055;28;20448;-81
2021/04/30 10:20:07;;;;;;;8.23;7.43;;;14.10;99.90;;;;;;5120317;28;20430;-83
2021/04/30 10:22:36;;;;;;;10.53;7.80;;;14.00;99.90;;;;;;5133445;28;20419;-83
2021/04/30 10:25:06;;;;;;;9.53;7.37;;;14.10;99.90;;;;;;5106687;28;20519;-78
2021/04/30 10:27:38;;;;;;;8.47;6.57;;;14.10;99.90;;;;;;5096484;28;20423;-79
2021/04/30 10:30:18;;;;;;;7.43;6.63;;;14.10;99.90;;;;;;5111203;28;20511;-79
2021/04/30 10:33:20;;;;;;;8.37;7.30;;;14.00;99.90;;;;;;5092952;28;20412;-81
2021/04/30 10:36:11;;;;;;;8.67;7.60;;;14.10;99.90;;;;;;5098834;28;20537;-81
2021/04/30 10:38:53;;;;;;;7.83;7.13;;;14.20;99.90;;;;;;5074208;28;20418;-81
2021/04/30 10:41:31;;;;;;;6.87;6.27;;;14.20;99.90;;;;;;5080766;28;20424;-82
2021/04/30 10:44:11;;;;;;;7.07;6.33;;;14.30;99.90;;;;;;5082468;28;20476;-81
2021/04/30 10:46:38;;;;;;;7.60;6.80;;;14.30;99.90;;;;;;5093281;28;20484;-81
2021/04/30 10:49:16;;;;;;;6.63;5.80;;;14.10;99.90;;;;;;5094454;28;20402;-80
2021/04/30 10:52:03;;;;;;;7.80;7.10;;;14.10;99.90;;;;;;5079893;28;20524;-79
2021/04/30 10:54:31;;;;;;;8.53;7.20;;;14.00;99.90;;;;;;5105169;28;20490;-78
2021/04/30 10:57:07;;;;;;;6.77;6.10;;;13.20;99.90;;;;;;5095250;28;20406;-82
2021/04/30 10:59:50;;;;;;;8.20;6.80;;;13.50;99.90;;;;;;5145879;27;20934;-81
2021/04/30 11:02:29;;;;;;;8.17;6.50;;;13.80;99.90;;;;;;5151357;27;20410;-82
2021/04/30 11:05:17;;;;;;;6.40;5.80;;;13.50;99.90;;;;;;5132194;27;20382;-82
2021/04/30 11:07:47;;;;;;;12.73;7.63;;;13.40;99.90;;;;;;5148090;27;20454;-82
2021/04/30 11:10:33;;;;;;;8.10;7.33;;;13.00;99.90;;;;;;5147896;27;20447;-81
2021/04/30 11:13:14;;;;;;;9.23;8.30;;;13.30;99.90;;;;;;5111270;27;20411;-81
2021/04/30 11:15:57;;;;;;;8.27;7.43;;;13.40;99.90;;;;;;5123225;28;20736;-80
2021/04/30 11:18:26;;;;;;;9.00;7.10;;;13.50;99.90;;;;;;5153232;27;20426;-80
2021/04/30 11:21:03;;;;;;;8.23;7.23;;;13.40;99.90;;;;;;5140445;27;20427;-82
2021/04/30 11:23:50;;;;;;;11.53;9.20;;;13.40;99.90;;;;;;5108820;27;20453;-80
2021/04/30 11:26:17;;;;;;;9.90;8.73;;;13.20;99.90;;;;;;5105947;27;20416;-78
2021/04/30 11:29:05;;;;;;;8.30;7.43;;;13.30;99.90;;;;;;5139658;27;20406;-80
2021/04/30 11:31:32;;;;;;;7.53;6.60;;;13.40;99.90;;;;;;5133827;27;20435;-82
2021/04/30 11:34:16;;;;;;;9.20;6.40;;;13.30;99.90;;;;;;5113547;28;20448;-80
2021/04/30 11:36:47;;;;;;;9.03;5.60;;;13.40;99.90;;;;;;5159013;27;20415;-80
2021/04/30 11:39:22;;;;;;;7.47;6.00;;;13.30;99.90;;;;;;5147048;27;20413;-79
2021/04/30 11:41:49;;;;;;;7.20;6.50;;;13.40;99.90;;;;;;5104819;28;20930;-79
2021/04/30 11:44:17;;;;;;;9.30;7.50;;;13.30;99.90;;;;;;5147237;27;20422;-80
2021/04/30 11:46:43;;;;;;;8.30;7.43;;;13.40;99.90;;;;;;5126488;28;20412;-79
2021/04/30 11:49:18;;;;;;;7.40;6.70;;;13.30;99.90;;;;;;5106902;28;20415;-79
2021/04/30 11:51:46;;;;;;;7.03;5.53;;;13.30;99.90;;;;;;5144152;27;20418;-82
2021/04/30 11:54:16;;;;;;;7.93;6.63;;;13.30;99.90;;;;;;5144348;27;20477;-78
2021/04/30 11:56:45;;;;;;;7.33;6.70;;;13.30;99.90;;;;;;5131722;27;20475;-81
2021/04/30 11:59:19;;;;;;;9.00;7.47;;;13.30;99.90;;;;;;5132488;27;20855;-80
2021/04/30 12:02:02;;;;;;;6.97;6.23;;;13.40;99.90;;;;;;5147149;27;20500;-83
2021/04/30 12:04:38;;;;;;;8.13;6.30;;;13.40;99.90;;;;;;5148818;27;20403;-82
2021/04/30 12:07:05;;;;;;;7.93;7.17;;;13.40;99.90;;;;;;5127499;27;20445;-83
2021/04/30 12:09:32;;;;;;;8.30;5.70;;;13.40;99.90;;;;;;5128297;27;20533;-82
2021/04/30 12:12:11;;;;;;;9.10;7.27;;;13.50;99.90;;;;;;5109728;27;20411;-82
2021/04/30 12:14:48;;;;;;;9.73;8.17;;;13.50;99.90;;;;;;5144713;27;20411;-82
2021/04/30 12:17:33;;;;;;;10.00;6.70;;;13.40;99.90;;;;;;5126492;27;20766;-82
2021/04/30 12:20:07;;;;;;;9.33;7.30;;;13.40;99.90;;;;;;5144238;27;20505;-81
2021/04/30 12:22:34;;;;;;;9.43;8.40;;;13.40;99.90;;;;;;5137011;27;20419;-81
2021/04/30 12:25:20;;;;;;;7.47;6.60;;;13.40;99.90;;;;;;5107921;27;20463;-82
2021/04/30 12:27:49;;;;;;;11.80;6.97;;;13.30;99.90;;;;;;5144206;27;20410;-81
2021/04/30 12:30:29;;;;;;;10.10;6.60;;;13.20;99.90;;;;;;5140003;27;20465;-81
2021/04/30 12:32:56;;;;;;;9.03;8.07;;;13.20;99.90;;;;;;5141872;27;20902;-82
2021/04/30 12:35:22;;;;;;;9.43;7.47;;;13.10;99.90;;;;;;5143974;27;20840;-81
2021/04/30 12:37:48;;;;;;;8.70;7.83;;;13.20;99.90;;;;;;5140738;27;20444;-81
2021/04/30 12:40:15;;;;;;;9.50;7.93;;;13.20;99.90;;;;;;5141047;27;20754;-81
2021/04/30 12:42:49;;;;;;;5.13;4.63;;;13.10;99.90;;;;;;5119211;28;20655;-81
2021/04/30 12:45:16;;;;;;;10.33;6.83;;;12.90;99.90;;;;;;5144362;27;20414;-82
2021/04/30 12:47:44;;;;;;;8.87;6.37;;;12.60;99.90;;;;;;5144694;27;20415;-81
2021/04/30 12:50:12;;;;;;;6.40;5.10;;;12.50;99.90;;;;;;5127461;27;20458;-81
2021/04/30 12:52:39;;;;;;;8.60;6.00;;;12.60;99.90;;;;;;5114830;28;20486;-81